Alden, Iowa
Current Conditions -  °F | °C
As of 12:15 PM on Monday 26 Jan 2015 (Local Time) from KIFA Reporting Station
Clear Clear  
Wind Chill:   Ceiling: Unl
Heat Index:   Visibility: 10mi
Dew Point:   Wind: 20mph
Humidity: 79%   Direction: 310°NW
Pressure: 29.78"   Gusts: 25mph
Location:  42.52°N, 93.38°W
Report Text: KIFA 261815Z AUTO 31017G22KT 10SM CLR 05/02 A2978 RMK AO2 T00500016
Loading
Personal Weather Stations






























Interactive Weather Map New forecast layout! Learn more

10-Day Weather Forecast

Advertisements
Track Severe Weather on mobile